Time;durP1;ratioP1;P1;durP2;ratioP2;P2;SDS_P1;SDS_P2;PMS_P1;PMS_P2;Temp;Humidity;BMP_temperature;BMP_pressure;BME280_temperature;BME280_humidity;BME280_pressure;Samples;Min_cycle;Max_cycle;Signal;HPM_P1;HPM_P2
2023/08/27 00:01:24;;;;;;;13.13;7.03;;;15.70;99.90;;;;;;5000897;28;20676;-62
2023/08/27 00:03:49;;;;;;;12.40;5.77;;;15.70;99.90;;;;;;5003447;28;20219;-62
2023/08/27 00:06:15;;;;;;;15.53;7.73;;;15.70;99.90;;;;;;5003624;28;20206;-62
2023/08/27 00:08:40;;;;;;;13.50;6.87;;;15.70;99.90;;;;;;4997695;28;20226;-62
2023/08/27 00:11:06;;;;;;;19.53;6.90;;;15.70;99.90;;;;;;4998467;28;20253;-62
2023/08/27 00:13:31;;;;;;;10.47;6.47;;;15.70;99.90;;;;;;4999911;28;20203;-62
2023/08/27 00:15:57;;;;;;;12.27;7.37;;;15.70;99.90;;;;;;5006899;28;20198;-62
2023/08/27 00:18:23;;;;;;;9.60;5.83;;;15.70;99.90;;;;;;5007021;28;20597;-62
2023/08/27 00:20:49;;;;;;;12.03;7.30;;;15.70;99.90;;;;;;5008369;28;20286;-62
2023/08/27 00:23:15;;;;;;;14.27;6.80;;;15.70;99.90;;;;;;5009292;28;20219;-62
2023/08/27 00:25:43;;;;;;;10.33;7.00;;;15.70;99.90;;;;;;4999885;28;20639;-62
2023/08/27 00:28:14;;;;;;;14.70;7.93;;;15.70;99.90;;;;;;4996643;28;20419;-62
2023/08/27 00:30:40;;;;;;;9.90;5.43;;;15.80;99.90;;;;;;4997997;28;20759;-62
2023/08/27 00:33:06;;;;;;;9.07;6.13;;;15.70;99.90;;;;;;5013682;28;20500;-62
2023/08/27 00:35:31;;;;;;;12.23;7.60;;;15.70;99.90;;;;;;5000604;28;20187;-62
2023/08/27 00:37:57;;;;;;;8.70;5.40;;;15.80;99.90;;;;;;5000554;28;20230;-64
2023/08/27 00:40:23;;;;;;;11.97;5.97;;;15.80;99.90;;;;;;5017379;28;20281;-62
2023/08/27 00:42:48;;;;;;;11.37;5.57;;;15.70;99.90;;;;;;5001476;28;20216;-62
2023/08/27 00:45:14;;;;;;;8.70;5.30;;;15.70;99.90;;;;;;5005872;28;20635;-62
2023/08/27 00:47:39;;;;;;;7.07;4.43;;;15.70;99.90;;;;;;5014292;28;20194;-62
2023/08/27 00:50:09;;;;;;;11.13;5.77;;;15.70;99.90;;;;;;5014584;28;20195;-62
2023/08/27 00:52:35;;;;;;;10.77;5.70;;;15.70;99.90;;;;;;5014405;28;20190;-62
2023/08/27 00:55:01;;;;;;;12.83;5.37;;;15.80;99.90;;;;;;5010437;28;20942;-62
2023/08/27 00:57:28;;;;;;;12.50;5.50;;;15.80;99.90;;;;;;4996664;28;20191;-62
2023/08/27 00:59:58;;;;;;;12.80;4.87;;;15.80;99.90;;;;;;4992701;28;20447;-62
2023/08/27 01:02:24;;;;;;;9.57;4.13;;;15.80;99.90;;;;;;4990061;28;20477;-62
2023/08/27 01:04:50;;;;;;;9.30;5.27;;;15.80;99.90;;;;;;4993851;28;20438;-62
2023/08/27 01:07:27;;;;;;;7.03;4.67;;;15.80;99.90;;;;;;4994218;28;21145;-62
2023/08/27 01:10:30;;;;;;;7.97;4.80;;;15.80;99.90;;;;;;4994468;28;20195;-62
2023/08/27 01:13:04;;;;;;;6.97;5.07;;;15.80;99.90;;;;;;4985079;28;20431;-62
2023/08/27 01:15:30;;;;;;;7.33;4.40;;;15.70;99.90;;;;;;4990577;28;20870;-62
2023/08/27 01:17:58;;;;;;;7.70;4.37;;;15.80;99.90;;;;;;4992903;28;21122;-62
2023/08/27 01:20:24;;;;;;;9.90;4.67;;;15.80;99.90;;;;;;4989589;28;20451;-62
2023/08/27 01:22:49;;;;;;;12.17;5.77;;;15.80;99.90;;;;;;4989832;28;20469;-62
2023/08/27 01:25:22;;;;;;;14.10;6.53;;;15.80;99.90;;;;;;4993582;28;20255;-62
2023/08/27 01:28:11;;;;;;;8.50;5.80;;;15.80;99.90;;;;;;4992779;28;20278;-62
2023/08/27 01:30:54;;;;;;;8.27;5.00;;;15.80;99.90;;;;;;4989709;28;20451;-62
2023/08/27 01:33:24;;;;;;;24.23;5.40;;;15.80;99.90;;;;;;4990019;28;21043;-62
2023/08/27 01:35:51;;;;;;;11.07;6.10;;;15.90;99.90;;;;;;4987116;28;20438;-62
2023/08/27 01:38:18;;;;;;;8.30;4.47;;;15.90;99.90;;;;;;4993918;28;21066;-62
2023/08/27 01:40:44;;;;;;;7.77;4.23;;;15.90;99.90;;;;;;4993852;28;20568;-62
2023/08/27 01:43:10;;;;;;;7.00;4.33;;;15.90;99.90;;;;;;4992953;28;21122;-62
2023/08/27 01:45:35;;;;;;;8.90;4.70;;;15.90;99.90;;;;;;4993519;28;20188;-62
2023/08/27 01:48:01;;;;;;;5.77;3.87;;;15.90;99.90;;;;;;4993604;28;20938;-62
2023/08/27 01:50:26;;;;;;;9.07;4.77;;;15.90;99.90;;;;;;4993817;28;20625;-62
2023/08/27 01:52:52;;;;;;;6.33;3.80;;;15.90;99.90;;;;;;4993509;28;20515;-62
2023/08/27 01:55:18;;;;;;;6.40;4.27;;;15.90;99.90;;;;;;4993463;28;20206;-62
2023/08/27 01:57:45;;;;;;;5.73;3.33;;;16.00;99.90;;;;;;4993056;28;20191;-62
2023/08/27 02:00:11;;;;;;;8.43;3.60;;;16.00;99.90;;;;;;4993480;28;20426;-62
2023/08/27 02:02:37;;;;;;;6.17;3.50;;;16.00;99.90;;;;;;4991054;28;20521;-62
2023/08/27 02:05:05;;;;;;;5.67;2.93;;;16.00;99.90;;;;;;4992917;28;20430;-63
2023/08/27 02:07:36;;;;;;;6.67;3.63;;;16.00;99.90;;;;;;4982961;28;20656;-62
2023/08/27 02:10:03;;;;;;;6.43;3.73;;;16.00;99.90;;;;;;4989754;28;20423;-62
2023/08/27 02:12:29;;;;;;;5.60;3.70;;;16.00;99.90;;;;;;4993017;28;20521;-62
2023/08/27 02:14:54;;;;;;;6.57;3.70;;;16.00;99.90;;;;;;4992712;28;20501;-62
2023/08/27 02:17:20;;;;;;;8.10;4.60;;;16.00;99.90;;;;;;4992188;28;20230;-62
2023/08/27 02:19:45;;;;;;;5.87;3.33;;;16.00;99.90;;;;;;4993183;28;20617;-62
2023/08/27 02:22:11;;;;;;;22.33;5.53;;;16.00;99.90;;;;;;4992854;28;20249;-62
2023/08/27 02:24:37;;;;;;;6.40;3.77;;;16.00;99.90;;;;;;4992663;28;20262;-62
2023/08/27 02:27:02;;;;;;;3.70;2.90;;;16.00;99.90;;;;;;4997021;28;20180;-62
2023/08/27 02:29:28;;;;;;;9.90;2.90;;;16.00;99.90;;;;;;4992584;28;20660;-62
2023/08/27 02:31:53;;;;;;;5.43;3.50;;;16.00;99.90;;;;;;4992423;28;20270;-62
2023/08/27 02:34:20;;;;;;;5.27;3.30;;;16.00;99.90;;;;;;4990412;28;20242;-62
2023/08/27 02:36:45;;;;;;;4.97;3.00;;;16.00;99.90;;;;;;4992361;28;20188;-62
2023/08/27 02:39:11;;;;;;;6.20;3.03;;;16.00;99.90;;;;;;4992858;28;20469;-62
2023/08/27 02:41:37;;;;;;;5.60;3.10;;;16.00;99.90;;;;;;4987850;28;20568;-62
2023/08/27 02:44:03;;;;;;;6.40;3.07;;;16.00;99.90;;;;;;4991981;28;20633;-62
2023/08/27 02:46:29;;;;;;;8.90;2.90;;;16.00;99.90;;;;;;4992128;28;20632;-63
2023/08/27 02:48:54;;;;;;;7.10;3.70;;;15.90;99.90;;;;;;4992718;28;20196;-63
2023/08/27 02:51:20;;;;;;;9.90;3.73;;;15.90;99.90;;;;;;4992798;28;20672;-63
2023/08/27 02:53:46;;;;;;;6.60;4.03;;;15.90;99.90;;;;;;4992075;28;20191;-62
2023/08/27 02:56:11;;;;;;;5.27;2.97;;;15.90;99.90;;;;;;4992697;28;20199;-63
2023/08/27 02:58:37;;;;;;;8.47;3.97;;;15.90;99.90;;;;;;4992257;28;20183;-63
2023/08/27 03:01:03;;;;;;;6.23;3.33;;;15.90;99.90;;;;;;4992267;28;20195;-63
2023/08/27 03:03:28;;;;;;;6.10;3.40;;;15.80;99.90;;;;;;4992192;28;21408;-63
2023/08/27 03:05:54;;;;;;;7.27;4.57;;;15.90;99.90;;;;;;4992096;28;20176;-63
2023/08/27 03:08:19;;;;;;;7.37;4.00;;;15.80;99.90;;;;;;4992186;28;20207;-62
2023/08/27 03:10:45;;;;;;;5.50;3.50;;;15.80;99.90;;;;;;4990284;28;20234;-63
2023/08/27 03:13:11;;;;;;;8.57;4.40;;;15.80;99.90;;;;;;4991457;28;20194;-63
2023/08/27 03:15:37;;;;;;;9.83;3.83;;;15.70;99.90;;;;;;4991415;28;20278;-62
2023/08/27 03:18:03;;;;;;;5.87;3.80;;;15.60;99.90;;;;;;4992293;28;20623;-63
2023/08/27 03:20:29;;;;;;;6.83;3.20;;;15.70;99.90;;;;;;4992124;28;20206;-62
2023/08/27 03:22:56;;;;;;;14.97;4.10;;;15.60;99.90;;;;;;4992022;28;20514;-63
2023/08/27 03:25:21;;;;;;;9.37;5.27;;;15.70;99.90;;;;;;4991496;28;20525;-63
2023/08/27 03:27:47;;;;;;;13.00;6.30;;;15.70;99.90;;;;;;4994865;28;20618;-63
2023/08/27 03:30:13;;;;;;;13.67;4.87;;;15.70;99.90;;;;;;4991815;28;20263;-63
2023/08/27 03:32:38;;;;;;;10.47;5.03;;;15.70;99.90;;;;;;4991874;28;20259;-63
2023/08/27 03:35:04;;;;;;;8.40;4.33;;;15.70;99.90;;;;;;4991762;28;20188;-63
2023/08/27 03:37:30;;;;;;;14.33;6.00;;;15.70;99.90;;;;;;4992292;28;20657;-63
2023/08/27 03:39:56;;;;;;;11.50;4.73;;;15.70;99.90;;;;;;4992035;28;20844;-62
2023/08/27 03:42:21;;;;;;;7.27;4.63;;;15.70;99.90;;;;;;4992077;28;20462;-62
2023/08/27 03:44:47;;;;;;;12.70;5.60;;;15.70;99.90;;;;;;4991308;28;20226;-62
2023/08/27 03:47:13;;;;;;;13.07;5.20;;;15.70;99.90;;;;;;4992050;28;20191;-62
2023/08/27 03:49:38;;;;;;;8.90;4.93;;;15.60;99.90;;;;;;4992422;28;20602;-62
2023/08/27 03:52:04;;;;;;;10.67;5.07;;;15.60;99.90;;;;;;4991615;28;20191;-62
2023/08/27 03:54:30;;;;;;;7.50;4.43;;;15.60;99.90;;;;;;4991548;28;20184;-62
2023/08/27 03:56:56;;;;;;;9.90;4.60;;;15.50;99.90;;;;;;4992195;28;20179;-62
2023/08/27 03:59:21;;;;;;;7.27;4.43;;;15.50;99.90;;;;;;4991464;28;20227;-62
2023/08/27 04:01:47;;;;;;;6.40;4.10;;;15.50;99.90;;;;;;4991742;28;20216;-63
2023/08/27 04:04:12;;;;;;;7.40;4.30;;;15.50;99.90;;;;;;4991683;28;20176;-62
2023/08/27 04:06:38;;;;;;;5.87;3.67;;;15.50;99.90;;;;;;4991598;28;20208;-62
2023/08/27 04:09:07;;;;;;;8.90;5.03;;;15.60;99.90;;;;;;4991729;28;20782;-63
2023/08/27 04:11:32;;;;;;;11.73;4.50;;;15.60;99.90;;;;;;4991748;28;20640;-63
2023/08/27 04:13:58;;;;;;;9.27;3.97;;;15.60;99.90;;;;;;4986334;28;20435;-63
2023/08/27 04:16:23;;;;;;;9.67;4.67;;;15.60;99.90;;;;;;4985364;28;20241;-63
2023/08/27 04:18:49;;;;;;;10.20;5.40;;;15.70;99.90;;;;;;4991731;28;20195;-63
2023/08/27 04:21:15;;;;;;;14.53;5.53;;;15.60;99.90;;;;;;4991820;28;20200;-63
2023/08/27 04:23:40;;;;;;;7.23;4.57;;;15.70;99.90;;;;;;4993851;28;20283;-63
2023/08/27 04:26:06;;;;;;;7.40;4.50;;;15.70;99.90;;;;;;4995209;28;20183;-63
2023/08/27 04:28:32;;;;;;;12.00;5.20;;;15.70;99.90;;;;;;4998660;28;20234;-63
2023/08/27 04:30:58;;;;;;;7.20;4.13;;;15.70;99.90;;;;;;4995070;28;20186;-63
2023/08/27 04:33:24;;;;;;;7.07;4.47;;;15.70;99.90;;;;;;4995056;28;20838;-63
2023/08/27 04:35:52;;;;;;;9.30;4.60;;;15.70;99.90;;;;;;4995345;28;20724;-63
2023/08/27 04:38:18;;;;;;;5.70;4.10;;;15.70;99.90;;;;;;4995701;28;20187;-63
2023/08/27 04:40:48;;;;;;;10.40;4.33;;;15.70;99.90;;;;;;4995304;28;20967;-63
2023/08/27 04:43:14;;;;;;;6.00;3.83;;;15.70;99.90;;;;;;4982019;28;20466;-63
2023/08/27 04:45:39;;;;;;;9.10;4.50;;;15.70;99.90;;;;;;4994438;28;20954;-63
2023/08/27 04:48:06;;;;;;;9.23;3.90;;;15.70;99.90;;;;;;4995309;28;20188;-63
2023/08/27 04:50:32;;;;;;;8.37;3.37;;;15.70;99.90;;;;;;4995081;28;20575;-63
2023/08/27 04:52:57;;;;;;;4.27;2.97;;;15.70;99.90;;;;;;4995065;28;20426;-63
2023/08/27 04:55:23;;;;;;;5.43;3.30;;;15.70;99.90;;;;;;4994458;28;20195;-63
2023/08/27 04:57:48;;;;;;;9.03;4.30;;;15.70;99.90;;;;;;4994593;28;20202;-63
2023/08/27 05:00:20;;;;;;;4.60;3.03;;;15.70;99.90;;;;;;4994896;28;20187;-63
2023/08/27 05:02:49;;;;;;;7.80;3.13;;;15.70;99.90;;;;;;4982178;28;20772;-63
2023/08/27 05:05:16;;;;;;;7.67;3.03;;;15.60;99.90;;;;;;4994332;28;20849;-63
2023/08/27 05:07:42;;;;;;;10.53;3.90;;;15.60;99.90;;;;;;4994760;28;20514;-63
2023/08/27 05:10:08;;;;;;;6.60;3.33;;;15.60;99.90;;;;;;4994329;28;20484;-63
2023/08/27 05:12:34;;;;;;;29.87;3.30;;;15.60;99.90;;;;;;4994742;28;20465;-63
2023/08/27 05:15:00;;;;;;;4.90;3.13;;;15.60;99.90;;;;;;4993672;28;20806;-63
2023/08/27 05:17:25;;;;;;;7.60;3.37;;;15.60;99.90;;;;;;4994315;28;20195;-63
2023/08/27 05:19:51;;;;;;;5.90;3.70;;;15.60;99.90;;;;;;4994513;28;20204;-63
2023/08/27 05:22:17;;;;;;;5.80;3.40;;;15.60;99.90;;;;;;4994650;28;20211;-63
2023/08/27 05:24:42;;;;;;;6.60;3.03;;;15.60;99.90;;;;;;4993950;28;20180;-63
2023/08/27 05:27:08;;;;;;;7.00;3.10;;;15.60;99.90;;;;;;4998161;28;20191;-63
2023/08/27 05:29:33;;;;;;;4.97;2.80;;;15.60;99.90;;;;;;4994180;28;20192;-63
2023/08/27 05:31:59;;;;;;;3.50;2.40;;;15.60;99.90;;;;;;4994140;28;20675;-63
2023/08/27 05:34:26;;;;;;;3.20;2.53;;;15.60;99.90;;;;;;4993338;28;20191;-63
2023/08/27 05:36:52;;;;;;;4.67;2.73;;;15.60;99.90;;;;;;4994074;28;20184;-63
2023/08/27 05:39:18;;;;;;;8.10;3.30;;;15.60;99.90;;;;;;4994179;28;20419;-63
2023/08/27 05:41:43;;;;;;;3.87;2.33;;;15.60;99.90;;;;;;4993749;28;20947;-63
2023/08/27 05:44:09;;;;;;;3.37;1.93;;;15.60;99.90;;;;;;4993382;28;20243;-63
2023/08/27 05:46:34;;;;;;;3.47;2.37;;;15.70;99.90;;;;;;4993466;28;20192;-63
2023/08/27 05:49:00;;;;;;;2.60;1.57;;;15.60;99.90;;;;;;4994023;28;20187;-63
2023/08/27 05:51:26;;;;;;;2.73;1.97;;;15.60;99.90;;;;;;4993933;28;20230;-63
2023/08/27 05:53:52;;;;;;;4.70;2.63;;;15.60;99.90;;;;;;4993267;28;20427;-63
2023/08/27 05:56:17;;;;;;;3.10;1.90;;;15.60;99.90;;;;;;4992116;28;20263;-63
2023/08/27 05:58:43;;;;;;;2.93;1.90;;;15.70;99.90;;;;;;4989705;28;20192;-63
2023/08/27 06:01:09;;;;;;;4.50;2.20;;;15.70;99.90;;;;;;4989601;28;20621;-63
2023/08/27 06:03:35;;;;;;;3.60;1.83;;;15.70;99.90;;;;;;4993315;28;20729;-64
2023/08/27 06:06:01;;;;;;;2.23;1.50;;;15.80;99.90;;;;;;4993417;28;20234;-63
2023/08/27 06:08:26;;;;;;;3.40;1.80;;;15.70;99.90;;;;;;4990781;28;20239;-63
2023/08/27 06:10:52;;;;;;;3.53;2.30;;;15.80;99.90;;;;;;4992651;28;20284;-63
2023/08/27 06:13:18;;;;;;;4.37;2.30;;;15.80;99.90;;;;;;4992697;28;20188;-63
2023/08/27 06:15:44;;;;;;;4.33;2.03;;;15.90;99.90;;;;;;4993103;28;20218;-63
2023/08/27 06:18:09;;;;;;;2.90;2.03;;;15.90;99.90;;;;;;4993414;28;20423;-63
2023/08/27 06:20:35;;;;;;;3.30;2.23;;;15.90;99.90;;;;;;4993514;28;20213;-63
2023/08/27 06:23:03;;;;;;;3.97;2.00;;;16.00;99.90;;;;;;4993022;28;20215;-63
2023/08/27 06:25:28;;;;;;;7.10;1.87;;;16.10;99.90;;;;;;4993137;28;20176;-63
2023/08/27 06:27:55;;;;;;;3.47;1.90;;;16.10;99.90;;;;;;4996392;28;20426;-63
2023/08/27 06:30:22;;;;;;;3.33;1.90;;;16.00;99.90;;;;;;4987084;28;20188;-63
2023/08/27 06:32:47;;;;;;;3.87;2.20;;;16.10;99.90;;;;;;4992557;28;20427;-63
2023/08/27 06:35:13;;;;;;;4.17;2.00;;;16.00;99.90;;;;;;4992829;28;20438;-63
2023/08/27 06:37:38;;;;;;;1.80;1.07;;;16.10;99.90;;;;;;4989862;28;20199;-63
2023/08/27 06:40:04;;;;;;;1.97;1.20;;;16.10;99.90;;;;;;4993126;28;20274;-63
2023/08/27 06:42:30;;;;;;;2.53;1.40;;;16.10;99.90;;;;;;4992516;28;20215;-63
2023/08/27 06:44:56;;;;;;;2.50;1.70;;;16.10;99.90;;;;;;4991597;28;20474;-63
2023/08/27 06:47:21;;;;;;;3.73;1.60;;;16.10;99.90;;;;;;4992199;28;20614;-63
2023/08/27 06:49:49;;;;;;;3.37;1.60;;;16.10;99.90;;;;;;4993008;28;20184;-63
2023/08/27 06:52:15;;;;;;;3.30;1.80;;;16.10;99.90;;;;;;4992429;28;20195;-63
2023/08/27 06:54:40;;;;;;;2.50;1.20;;;16.10;99.90;;;;;;4988467;28;20427;-63
2023/08/27 06:57:06;;;;;;;4.00;1.93;;;16.10;99.90;;;;;;4983603;28;20209;-63
2023/08/27 06:59:32;;;;;;;2.93;1.40;;;16.00;99.90;;;;;;4989037;28;20192;-63
2023/08/27 07:01:57;;;;;;;3.10;1.33;;;16.00;99.90;;;;;;4987506;28;20683;-63
2023/08/27 07:04:23;;;;;;;2.57;1.43;;;16.00;99.90;;;;;;4985964;28;20192;-63
2023/08/27 07:06:49;;;;;;;2.80;1.47;;;16.00;99.90;;;;;;4986084;28;20243;-63
2023/08/27 07:09:14;;;;;;;4.03;1.67;;;16.10;99.90;;;;;;4991607;28;20176;-63
2023/08/27 07:11:40;;;;;;;2.17;1.03;;;16.10;99.90;;;;;;4990580;28;20187;-63
2023/08/27 07:14:06;;;;;;;3.77;2.10;;;16.10;99.90;;;;;;4990477;28;20221;-63
2023/08/27 07:16:31;;;;;;;5.10;1.30;;;16.10;99.90;;;;;;4991207;28;20208;-63
2023/08/27 07:18:57;;;;;;;2.20;1.40;;;16.20;99.90;;;;;;4991777;28;20625;-63
2023/08/27 07:21:22;;;;;;;3.00;1.43;;;16.10;99.90;;;;;;5004892;28;20615;-63
2023/08/27 07:23:48;;;;;;;2.40;1.17;;;16.10;99.90;;;;;;4991097;28;20211;-63
2023/08/27 07:26:14;;;;;;;1.77;1.27;;;16.20;99.90;;;;;;4990987;28;20180;-63
2023/08/27 07:28:39;;;;;;;1.70;0.83;;;16.30;99.90;;;;;;4994581;28;20271;-63
2023/08/27 07:31:05;;;;;;;1.83;1.00;;;16.30;99.90;;;;;;4990644;28;20998;-65
2023/08/27 07:33:32;;;;;;;1.60;1.00;;;16.30;99.90;;;;;;4990716;28;20187;-64
2023/08/27 07:35:58;;;;;;;2.60;0.87;;;16.30;99.90;;;;;;4991618;28;20192;-64
2023/08/27 07:38:26;;;;;;;2.53;0.90;;;16.30;99.90;;;;;;4991357;28;20484;-64
2023/08/27 07:40:52;;;;;;;2.10;1.00;;;16.50;99.90;;;;;;4991396;28;20195;-64
2023/08/27 07:43:18;;;;;;;2.93;1.20;;;16.60;99.90;;;;;;4988674;28;20470;-64
2023/08/27 07:45:44;;;;;;;3.03;0.93;;;16.70;99.90;;;;;;4988122;28;20426;-64
2023/08/27 07:48:09;;;;;;;3.60;0.97;;;16.80;99.90;;;;;;4991255;28;20195;-64
2023/08/27 07:50:35;;;;;;;1.77;0.90;;;16.80;99.90;;;;;;4991413;28;20263;-64
2023/08/27 07:53:00;;;;;;;2.17;0.90;;;16.80;99.90;;;;;;4991566;28;20188;-64
2023/08/27 07:55:31;;;;;;;2.00;1.07;;;16.70;99.90;;;;;;4989456;28;20192;-64
2023/08/27 07:57:57;;;;;;;2.53;1.20;;;16.80;99.90;;;;;;4993036;28;20785;-64
2023/08/27 08:00:22;;;;;;;3.97;1.20;;;16.80;99.90;;;;;;4991266;28;20435;-64
2023/08/27 08:02:48;;;;;;;2.07;1.00;;;16.80;99.90;;;;;;4992121;28;20825;-64
2023/08/27 08:05:14;;;;;;;2.13;0.77;;;16.90;99.90;;;;;;4994310;28;20625;-64
2023/08/27 08:07:40;;;;;;;13.47;1.93;;;17.00;99.90;;;;;;4994979;28;20628;-64
2023/08/27 08:10:06;;;;;;;1.93;1.00;;;17.10;99.90;;;;;;4994459;28;20168;-64
2023/08/27 08:12:32;;;;;;;1.90;1.00;;;17.00;99.90;;;;;;4991001;28;20426;-64
2023/08/27 08:14:57;;;;;;;2.77;1.03;;;17.00;99.90;;;;;;4987197;28;20490;-64
2023/08/27 08:17:23;;;;;;;8.40;1.10;;;17.00;99.90;;;;;;4993086;28;20188;-64
2023/08/27 08:19:50;;;;;;;2.90;1.10;;;17.00;99.90;;;;;;4988282;28;20196;-64
2023/08/27 08:22:16;;;;;;;5.73;1.10;;;17.10;99.90;;;;;;4993441;28;20295;-64
2023/08/27 08:24:42;;;;;;;1.70;0.97;;;17.10;99.90;;;;;;4990828;28;20537;-65
2023/08/27 08:27:07;;;;;;;1.80;1.07;;;17.20;99.90;;;;;;4998449;28;20684;-66
2023/08/27 08:29:33;;;;;;;2.30;1.13;;;17.30;99.90;;;;;;4988266;28;20235;-66
2023/08/27 08:31:59;;;;;;;2.13;1.10;;;17.30;99.90;;;;;;4994124;28;20183;-66
2023/08/27 08:34:29;;;;;;;2.27;0.90;;;17.40;99.90;;;;;;4994163;28;20188;-65
2023/08/27 08:36:56;;;;;;;2.23;1.17;;;17.40;99.90;;;;;;4994587;28;20274;-65
2023/08/27 08:39:23;;;;;;;1.93;0.90;;;17.50;99.90;;;;;;4995028;28;20907;-65
2023/08/27 08:42:02;;;;;;;2.90;1.10;;;17.50;99.90;;;;;;4994492;28;20819;-67
2023/08/27 08:45:05;;;;;;;1.90;0.97;;;17.80;99.90;;;;;;4988980;28;20537;-67
2023/08/27 08:47:32;;;;;;;4.40;1.17;;;17.80;99.90;;;;;;4993053;28;20429;-65
2023/08/27 08:50:03;;;;;;;2.10;1.20;;;17.80;99.90;;;;;;4994434;28;20453;-65
2023/08/27 08:52:30;;;;;;;2.63;1.00;;;17.70;99.90;;;;;;4993936;28;20482;-65
2023/08/27 08:54:56;;;;;;;2.47;0.87;;;17.60;99.90;;;;;;4993743;28;20461;-65
2023/08/27 08:57:26;;;;;;;4.47;1.03;;;17.60;99.90;;;;;;4995103;28;20800;-65
2023/08/27 08:59:53;;;;;;;4.03;1.43;;;17.60;99.90;;;;;;4995060;28;20537;-65
2023/08/27 09:02:19;;;;;;;2.90;1.03;;;17.60;99.90;;;;;;4989889;28;20467;-65
2023/08/27 09:04:45;;;;;;;2.30;1.47;;;17.70;99.90;;;;;;4995408;28;20524;-64
2023/08/27 09:07:12;;;;;;;1.50;0.90;;;17.60;99.90;;;;;;4998403;28;20423;-66
2023/08/27 09:09:39;;;;;;;2.03;1.00;;;17.70;99.90;;;;;;4993078;28;20415;-66
2023/08/27 09:12:07;;;;;;;5.50;1.90;;;17.60;99.90;;;;;;5007267;28;20490;-65
2023/08/27 09:14:35;;;;;;;2.50;1.20;;;17.60;99.90;;;;;;4990599;28;20429;-65
2023/08/27 09:17:01;;;;;;;2.50;1.20;;;17.80;99.90;;;;;;4996963;28;20927;-65
2023/08/27 09:19:26;;;;;;;4.30;1.10;;;17.90;99.90;;;;;;5002998;28;20458;-67
2023/08/27 09:21:52;;;;;;;4.10;1.73;;;17.80;99.90;;;;;;4993619;28;20239;-66
2023/08/27 09:24:18;;;;;;;2.10;0.90;;;17.80;99.90;;;;;;4993524;28;20258;-66
2023/08/27 09:26:44;;;;;;;2.53;1.10;;;18.00;99.90;;;;;;4996334;28;20226;-66
2023/08/27 09:29:09;;;;;;;4.43;1.50;;;18.10;99.90;;;;;;4991008;28;20419;-65
2023/08/27 09:31:37;;;;;;;2.70;1.50;;;18.40;99.90;;;;;;4993210;28;20234;-65
2023/08/27 09:34:03;;;;;;;17.03;1.80;;;18.40;99.90;;;;;;4993331;28;20176;-65
2023/08/27 09:36:30;;;;;;;3.07;1.20;;;18.50;99.90;;;;;;4993607;28;20419;-66
2023/08/27 09:38:56;;;;;;;2.50;1.20;;;18.70;99.90;;;;;;4993629;28;20172;-65
2023/08/27 09:41:22;;;;;;;2.33;1.00;;;18.70;99.90;;;;;;4993253;28;20747;-67
2023/08/27 09:43:54;;;;;;;3.17;1.40;;;18.80;99.90;;;;;;4992442;28;20207;-66
2023/08/27 09:46:21;;;;;;;3.47;1.43;;;19.10;99.90;;;;;;4992741;28;20176;-66
2023/08/27 09:49:07;;;;;;;4.67;2.17;;;19.20;99.90;;;;;;4993242;28;20423;-66
2023/08/27 09:51:34;;;;;;;2.80;1.27;;;19.20;99.90;;;;;;4989631;28;20406;-66
2023/08/27 09:54:00;;;;;;;1.77;0.90;;;19.30;99.90;;;;;;4997078;28;20453;-65
2023/08/27 09:56:26;;;;;;;2.40;1.30;;;19.50;99.90;;;;;;4992915;28;20530;-67
2023/08/27 09:58:54;;;;;;;2.00;1.10;;;19.40;99.90;;;;;;4992958;28;20214;-64
2023/08/27 10:01:26;;;;;;;2.03;0.80;;;19.20;99.90;;;;;;4990145;28;20430;-65
2023/08/27 10:03:51;;;;;;;2.37;0.90;;;19.20;99.90;;;;;;4992490;28;20601;-66
2023/08/27 10:06:17;;;;;;;3.77;1.37;;;19.20;99.90;;;;;;4992902;28;20839;-66
2023/08/27 10:08:48;;;;;;;2.33;0.90;;;19.20;99.90;;;;;;4992806;28;20183;-66
2023/08/27 10:11:15;;;;;;;1.70;0.80;;;19.30;99.90;;;;;;4992820;28;20263;-66
2023/08/27 10:13:43;;;;;;;2.10;0.90;;;19.30;99.90;;;;;;4991961;28;20486;-65
2023/08/27 10:16:13;;;;;;;3.53;1.70;;;19.40;99.90;;;;;;4982933;28;20427;-65
2023/08/27 10:18:40;;;;;;;2.40;1.07;;;19.30;99.90;;;;;;5009895;28;20425;-65
2023/08/27 10:21:07;;;;;;;2.60;1.43;;;19.40;99.90;;;;;;5001684;28;20446;-66
2023/08/27 10:23:34;;;;;;;2.00;1.20;;;19.50;99.90;;;;;;4990042;28;20553;-66
2023/08/27 10:26:01;;;;;;;3.80;1.00;;;19.60;99.90;;;;;;4989417;28;20460;-65
2023/08/27 10:28:27;;;;;;;4.27;1.10;;;19.50;99.90;;;;;;4995492;28;20477;-65
2023/08/27 10:30:55;;;;;;;5.03;1.03;;;19.50;99.90;;;;;;4991874;28;21179;-65
2023/08/27 10:33:20;;;;;;;4.20;1.43;;;19.60;99.90;;;;;;4991884;28;20184;-65
2023/08/27 10:35:49;;;;;;;2.93;1.27;;;19.60;99.90;;;;;;4992349;28;20427;-66
2023/08/27 10:38:16;;;;;;;3.00;1.40;;;19.70;99.90;;;;;;4995584;28;20180;-65
2023/08/27 10:40:44;;;;;;;2.03;0.80;;;19.50;99.90;;;;;;4999365;28;20424;-65
2023/08/27 10:43:18;;;;;;;2.10;1.00;;;19.50;99.90;;;;;;4991554;28;20466;-65
2023/08/27 10:45:43;;;;;;;2.13;1.10;;;19.60;99.90;;;;;;4991232;28;20427;-65
2023/08/27 10:48:35;;;;;;;1.97;1.00;;;19.50;99.90;;;;;;4991967;28;20419;-65
2023/08/27 10:51:10;;;;;;;2.53;1.00;;;19.50;99.90;;;;;;4991718;28;20180;-65
2023/08/27 10:53:40;;;;;;;3.67;1.57;;;19.70;99.90;;;;;;4984123;28;20430;-65
2023/08/27 10:56:37;;;;;;;2.33;1.10;;;19.80;99.90;;;;;;4991398;28;20937;-65
2023/08/27 10:59:09;;;;;;;4.13;1.07;;;19.70;99.90;;;;;;4991996;28;20431;-65
2023/08/27 11:01:39;;;;;;;3.53;1.00;;;19.70;99.90;;;;;;4990362;28;20435;-68
2023/08/27 11:04:06;;;;;;;1.77;0.87;;;19.40;99.90;;;;;;4991502;28;20434;-69
2023/08/27 11:06:38;;;;;;;3.30;0.90;;;19.40;99.90;;;;;;4989036;28;20798;-66
2023/08/27 11:09:20;;;;;;;2.07;1.10;;;19.40;99.90;;;;;;4991654;28;20493;-65
2023/08/27 11:11:49;;;;;;;2.73;1.33;;;19.60;99.90;;;;;;4991403;28;20558;-66
2023/08/27 11:14:16;;;;;;;3.00;1.13;;;19.70;99.90;;;;;;4991295;28;20779;-64
2023/08/27 11:16:48;;;;;;;2.40;1.03;;;19.70;99.90;;;;;;4991020;28;20435;-63
2023/08/27 11:19:23;;;;;;;3.67;1.37;;;19.80;99.90;;;;;;4991691;28;20968;-65
2023/08/27 11:21:48;;;;;;;2.77;1.17;;;19.70;99.90;;;;;;4991294;28;20445;-66
2023/08/27 11:24:18;;;;;;;2.40;1.23;;;19.90;99.90;;;;;;4991324;28;20423;-65
2023/08/27 11:26:47;;;;;;;2.30;0.93;;;19.70;99.90;;;;;;4992239;28;20265;-65
2023/08/27 11:29:14;;;;;;;2.83;1.20;;;19.80;99.90;;;;;;4991061;28;20433;-65
2023/08/27 11:31:44;;;;;;;2.00;1.00;;;19.70;99.90;;;;;;4994194;28;20449;-66
2023/08/27 11:34:16;;;;;;;2.20;1.20;;;19.90;99.90;;;;;;4999369;28;20423;-65
2023/08/27 11:36:44;;;;;;;2.60;1.10;;;20.10;99.90;;;;;;4990938;28;20423;-65
2023/08/27 11:39:17;;;;;;;2.60;1.03;;;20.00;99.90;;;;;;4991439;28;20423;-66
2023/08/27 11:41:44;;;;;;;4.37;1.03;;;20.10;99.90;;;;;;4990315;28;20418;-66
2023/08/27 11:44:10;;;;;;;2.63;1.00;;;20.10;99.90;;;;;;4990610;28;20443;-65
2023/08/27 11:46:37;;;;;;;3.40;1.43;;;20.20;99.90;;;;;;4990608;28;20421;-66
2023/08/27 11:49:05;;;;;;;2.60;0.97;;;20.20;99.90;;;;;;4991299;28;20422;-65
2023/08/27 11:51:31;;;;;;;2.03;0.93;;;20.20;99.90;;;;;;4991179;28;20455;-66
2023/08/27 11:53:57;;;;;;;3.40;0.90;;;20.20;99.90;;;;;;4990707;28;20868;-67
2023/08/27 11:56:23;;;;;;;3.13;1.50;;;20.10;99.90;;;;;;4991210;28;20548;-66
2023/08/27 11:58:51;;;;;;;1.50;0.87;;;20.00;99.90;;;;;;4990900;28;20432;-66
2023/08/27 12:01:18;;;;;;;3.60;0.90;;;20.10;99.90;;;;;;4990996;28;20415;-67
2023/08/27 12:03:46;;;;;;;5.87;1.07;;;20.10;99.90;;;;;;4990609;28;20469;-67
2023/08/27 12:06:19;;;;;;;1.90;0.90;;;20.20;99.90;;;;;;4990902;28;20419;-67
2023/08/27 12:08:52;;;;;;;2.00;0.83;;;20.20;99.90;;;;;;4990897;28;20429;-66
2023/08/27 12:11:18;;;;;;;7.80;1.10;;;20.40;99.90;;;;;;4991033;28;20474;-66
2023/08/27 12:13:47;;;;;;;2.43;1.07;;;20.30;99.90;;;;;;4990103;28;20419;-66
2023/08/27 12:16:14;;;;;;;1.80;0.80;;;20.50;99.90;;;;;;4987395;28;20435;-67
2023/08/27 12:18:45;;;;;;;2.40;0.93;;;20.40;99.90;;;;;;4990090;28;20418;-67
2023/08/27 12:21:10;;;;;;;6.07;0.97;;;20.50;99.90;;;;;;4982826;28;20446;-67
2023/08/27 12:23:36;;;;;;;4.80;1.43;;;20.40;99.90;;;;;;4990061;28;20470;-67
2023/08/27 12:26:02;;;;;;;2.23;1.30;;;20.00;99.90;;;;;;4990606;28;20251;-67
2023/08/27 12:28:28;;;;;;;2.17;1.10;;;20.10;99.90;;;;;;4994057;28;20176;-66
2023/08/27 12:30:58;;;;;;;2.90;0.90;;;20.00;99.90;;;;;;4990582;28;20967;-66
2023/08/27 12:33:37;;;;;;;3.03;0.90;;;20.20;99.90;;;;;;4990281;28;20419;-66
2023/08/27 12:36:07;;;;;;;2.00;0.80;;;20.30;99.90;;;;;;4981828;28;20457;-66
2023/08/27 12:38:33;;;;;;;3.17;1.23;;;20.00;99.90;;;;;;4990924;28;20414;-66
2023/08/27 12:41:00;;;;;;;5.60;1.37;;;20.20;99.90;;;;;;4990288;28;20469;-66
2023/08/27 12:43:26;;;;;;;4.83;1.30;;;20.30;99.90;;;;;;4988870;28;20469;-66
2023/08/27 12:45:52;;;;;;;2.00;1.00;;;20.20;99.90;;;;;;4993399;28;20505;-66